Карточка аэропорта UACP

Внимание!
Информация на этой странице в стадии наполнения.
Если вы не увидели какой-то информации, или заметили неточность - пожалуйста сообщите нам!
Спасибо!
Команда XR-STAFF
Название аэропортаПетропавловск
Название аэропорта (англ.)Petropavlovsk
Превышение459 ft. (139.9 m.)
Координаты54°46.464', 69°11.1'
Высота перехода10000ft
Эшелон переходаFL120, QNH<733:FL130
Коды ответчика7260-7263
Зона ОрВДНур-Султан РПИ (UACN)
Данные METARUACP 160800Z 20011MPS 9999 OVC033CB 18/10 Q1003 NOSIG RMK QFE740/0987
Проноз погоды (TAF)
NOTAMshow/hide NOTAM
AWOS   TABLE

Информация о ВПП

ВПП Длина ВПП (м.) Покрытие Курс ВПП Частота ILS
052802Асфальтобетон53 
232802Асфальтобетон233108.3

Диспетчерские позиции

Позывной Наименование органа УВД Частота
UACP_APPПетропавловск Вышка123.7



Спутниковое изображение